N88 weather

Kecks Airport
Julian, North Carolina, United States

Public forecast

Using degrees Fahrenheit for public forecast. Weather courtesy of forecast.io.

Closest aviation weather report (METAR) to Kecks Airport

Closest report is Burlington Alamance Regional Airport, 10.4 nm (19.3 km) NE. Retrieved 2020/07/07 21:54 UTC (53 minutes ago):

KBUY 072154Z AUTO 14004KT 10SM CLR 27/21 A3001 RMK AO2 SLP156 T02670211

Closest aviation forecast (TAF) to Kecks Airport

Closest forecast is Piedmont Triad International Airport, 18.2 nm (33.8 km) NW. Retrieved 2020/07/07 18:45 UTC (4 hours ago):

TAF KGSO 071740Z 0718/0818 15007KT P6SM VCSH BKN035 OVC200 TEMPO 0719/0723 4SM -TSRA BKN030CB FM080700 13003KT P6SM BKN015 OVC100 FM081500 VRB05KT P6SM BKN035